Time;durP1;ratioP1;P1;durP2;ratioP2;P2;SDS_P1;SDS_P2;PMS_P1;PMS_P2;Temp;Humidity;BMP_temperature;BMP_pressure;BME280_temperature;BME280_humidity;BME280_pressure;Samples;Min_cycle;Max_cycle;Signal;HPM_P1;HPM_P2
2022/01/24 00:02:11;;;;;;;11.77;6.38;;;;;;;;;;5049947;28;20037;-64
2022/01/24 00:04:38;;;;;;;9.57;5.50;;;;;;;;;;5051228;28;20032;-66
2022/01/24 00:07:05;;;;;;;9.60;6.03;;;;;;;;;;5034223;28;20033;-65
2022/01/24 00:09:32;;;;;;;12.38;6.38;;;;;;;;;;5031303;28;20428;-64
2022/01/24 00:17:11;;;;;;;12.07;6.35;;;;;;;;;;5071206;28;20031;-66
2022/01/24 00:27:52;;;;;;;10.80;5.88;;;;;;;;;;5075073;28;20047;-67
2022/01/24 00:30:18;;;;;;;9.40;5.10;;;;;;;;;;5075210;28;20040;-65
2022/01/24 00:32:45;;;;;;;11.63;7.10;;;;;;;;;;5075320;28;20056;-66
2022/01/24 00:35:11;;;;;;;9.85;5.47;;;;;;;;;;5075062;28;20424;-67
2022/01/24 00:37:38;;;;;;;12.05;6.53;;;;;;;;;;5073851;28;20424;-67
2022/01/24 00:40:04;;;;;;;11.02;6.03;;;;;;;;;;5075000;28;20032;-67
2022/01/24 00:42:38;;;;;;;11.82;5.60;;;;;;;;;;5074761;28;20025;-67
2022/01/24 00:45:11;;;;;;;10.48;6.05;;;;;;;;;;5074891;28;20039;-64
2022/01/24 00:55:36;;;;;;;13.07;6.15;;;;;;;;;;5074883;28;20044;-68
2022/01/24 00:58:03;;;;;;;10.77;5.05;;;;;;;;;;5074662;28;20099;-66
2022/01/24 01:00:29;;;;;;;11.13;5.80;;;;;;;;;;5074689;28;20071;-67
2022/01/24 01:02:55;;;;;;;12.77;6.07;;;;;;;;;;5055189;28;20036;-67
2022/01/24 01:18:37;;;;;;;10.55;5.90;;;;;;;;;;5054499;28;20125;-69
2022/01/24 01:21:14;;;;;;;11.57;6.55;;;;;;;;;;5053367;28;20407;-71
2022/01/24 01:23:45;;;;;;;10.45;5.78;;;;;;;;;;5053150;28;20044;-66
2022/01/24 01:29:17;;;;;;;11.13;6.25;;;;;;;;;;5029698;28;20624;-67
2022/01/24 01:31:57;;;;;;;11.95;6.38;;;;;;;;;;5030989;28;20104;-68
2022/01/24 01:37:29;;;;;;;8.80;5.13;;;;;;;;;;5032450;28;20021;-69
2022/01/24 01:56:07;;;;;;;10.02;5.40;;;;;;;;;;5032764;28;20406;-66
2022/01/24 01:58:33;;;;;;;10.55;6.13;;;;;;;;;;5031437;28;20109;-65
2022/01/24 02:01:00;;;;;;;10.25;5.53;;;;;;;;;;5039088;28;20025;-65
2022/01/24 02:03:27;;;;;;;11.90;6.10;;;;;;;;;;5052471;28;20025;-66
2022/01/24 02:05:53;;;;;;;9.63;5.57;;;;;;;;;;5051187;28;20024;-67
2022/01/24 02:08:22;;;;;;;9.35;5.22;;;;;;;;;;5045976;28;20033;-69
2022/01/24 02:10:48;;;;;;;10.63;6.00;;;;;;;;;;5032350;28;20029;-70
2022/01/24 02:13:14;;;;;;;10.90;5.55;;;;;;;;;;5032645;28;20025;-70
2022/01/24 02:18:44;;;;;;;13.23;6.57;;;;;;;;;;5040361;28;20068;-69
2022/01/24 02:23:52;;;;;;;9.53;5.20;;;;;;;;;;5033816;28;20037;-66
2022/01/24 02:26:21;;;;;;;10.90;5.72;;;;;;;;;;5033277;28;20033;-70
2022/01/24 02:34:01;;;;;;;11.50;5.80;;;;;;;;;;5033452;28;20032;-70
2022/01/24 02:36:27;;;;;;;10.80;6.38;;;;;;;;;;5032562;28;20027;-70
2022/01/24 02:49:28;;;;;;;9.98;5.55;;;;;;;;;;5032934;28;20433;-69
2022/01/24 02:52:02;;;;;;;9.45;5.63;;;;;;;;;;5032801;28;20052;-67
2022/01/24 02:54:30;;;;;;;9.85;5.70;;;;;;;;;;5032941;28;20018;-67
2022/01/24 02:56:56;;;;;;;9.45;5.53;;;;;;;;;;5064802;28;20030;-67
2022/01/24 02:59:22;;;;;;;11.13;5.93;;;;;;;;;;5033177;28;20028;-68
2022/01/24 03:01:48;;;;;;;8.38;5.03;;;;;;;;;;5033008;28;20057;-68
2022/01/24 03:04:15;;;;;;;10.82;5.97;;;;;;;;;;5032729;28;20022;-68
2022/01/24 03:06:41;;;;;;;13.68;6.43;;;;;;;;;;5064379;28;20034;-68
2022/01/24 03:09:08;;;;;;;10.55;6.13;;;;;;;;;;5032359;28;20100;-69
2022/01/24 03:14:21;;;;;;;10.98;5.68;;;;;;;;;;5052368;28;20072;-69
2022/01/24 03:16:47;;;;;;;8.65;5.20;;;;;;;;;;5052341;28;20112;-69
2022/01/24 03:19:14;;;;;;;10.70;5.57;;;;;;;;;;5052137;28;20427;-68
2022/01/24 03:21:42;;;;;;;10.40;5.65;;;;;;;;;;5051906;28;20036;-68
2022/01/24 03:24:08;;;;;;;8.90;5.10;;;;;;;;;;5052104;28;20020;-67
2022/01/24 03:26:34;;;;;;;9.20;5.70;;;;;;;;;;5052105;28;20025;-69
2022/01/24 03:29:00;;;;;;;9.80;5.65;;;;;;;;;;5050770;28;20120;-68
2022/01/24 03:31:26;;;;;;;12.18;5.32;;;;;;;;;;5051858;28;20460;-68
2022/01/24 03:33:52;;;;;;;12.63;5.95;;;;;;;;;;5051932;28;20060;-67
2022/01/24 03:36:18;;;;;;;8.52;5.55;;;;;;;;;;5052148;28;20487;-68
2022/01/24 03:38:44;;;;;;;9.55;5.25;;;;;;;;;;5052259;28;20021;-68
2022/01/24 03:41:10;;;;;;;10.95;6.00;;;;;;;;;;5051723;28;20365;-66
2022/01/24 03:43:36;;;;;;;11.05;5.85;;;;;;;;;;5051794;28;20025;-67
2022/01/24 03:46:24;;;;;;;11.35;5.90;;;;;;;;;;5051795;28;20487;-67
2022/01/24 03:51:35;;;;;;;10.15;5.70;;;;;;;;;;5051920;28;20474;-68
2022/01/24 03:54:01;;;;;;;10.05;5.88;;;;;;;;;;5050502;28;20036;-68
2022/01/24 03:56:28;;;;;;;11.25;5.88;;;;;;;;;;5050565;28;20123;-69
2022/01/24 03:58:54;;;;;;;12.13;6.15;;;;;;;;;;5051741;28;20049;-67
2022/01/24 04:01:20;;;;;;;10.77;6.45;;;;;;;;;;5051472;28;20090;-68
2022/01/24 04:03:46;;;;;;;10.90;6.40;;;;;;;;;;5051596;28;20025;-66
2022/01/24 04:06:14;;;;;;;12.77;6.13;;;;;;;;;;5051498;28;20021;-66
2022/01/24 04:08:40;;;;;;;9.82;5.32;;;;;;;;;;5051637;28;20028;-67
2022/01/24 04:11:11;;;;;;;10.93;5.35;;;;;;;;;;5051476;28;20017;-67
2022/01/24 04:13:40;;;;;;;9.73;5.15;;;;;;;;;;5051500;28;20468;-66
2022/01/24 04:19:31;;;;;;;10.85;5.88;;;;;;;;;;5051716;28;20076;-67
2022/01/24 04:21:48;;;;;;;11.88;6.13;;;;;;;;;;5051162;28;20114;-70
2022/01/24 04:24:19;;;;;;;11.60;5.78;;;;;;;;;;5051249;28;20481;-66
2022/01/24 04:26:46;;;;;;;10.88;6.00;;;;;;;;;;5051180;28;20033;-69
2022/01/24 04:29:12;;;;;;;10.43;5.82;;;;;;;;;;5051243;28;20071;-69
2022/01/24 04:31:38;;;;;;;10.40;5.68;;;;;;;;;;5050995;28;20036;-69
2022/01/24 04:34:04;;;;;;;11.23;6.13;;;;;;;;;;5051066;28;20071;-69
2022/01/24 04:36:30;;;;;;;10.15;5.32;;;;;;;;;;5051097;28;20017;-69
2022/01/24 04:38:56;;;;;;;9.70;5.68;;;;;;;;;;5050985;28;20025;-67
2022/01/24 04:41:27;;;;;;;9.63;5.50;;;;;;;;;;5051121;28;20018;-69
2022/01/24 04:51:55;;;;;;;12.80;5.93;;;;;;;;;;5051096;28;20564;-67
2022/01/24 04:56:56;;;;;;;11.40;5.68;;;;;;;;;;5051204;28;20056;-67
2022/01/24 04:59:22;;;;;;;13.60;7.03;;;;;;;;;;5051245;28;20080;-68
2022/01/24 05:01:48;;;;;;;9.55;5.75;;;;;;;;;;5050960;28;20029;-67
2022/01/24 05:04:14;;;;;;;10.82;6.50;;;;;;;;;;5050892;28;20025;-63
2022/01/24 05:06:40;;;;;;;12.18;5.50;;;;;;;;;;5050813;28;20029;-69
2022/01/24 05:09:07;;;;;;;10.13;5.53;;;;;;;;;;5050847;28;20017;-70
2022/01/24 05:11:40;;;;;;;11.02;6.20;;;;;;;;;;5052985;28;20021;-67
2022/01/24 05:24:46;;;;;;;11.73;6.50;;;;;;;;;;5034418;28;20068;-68
2022/01/24 05:27:13;;;;;;;9.75;6.13;;;;;;;;;;5034329;28;20044;-64
2022/01/24 05:29:39;;;;;;;12.43;6.00;;;;;;;;;;5034553;28;20469;-66
2022/01/24 05:32:08;;;;;;;9.75;5.70;;;;;;;;;;5034433;28;20030;-67
2022/01/24 05:34:34;;;;;;;9.88;5.88;;;;;;;;;;5034482;28;20022;-67
2022/01/24 05:37:00;;;;;;;12.18;6.45;;;;;;;;;;5034259;28;20068;-67
2022/01/24 05:39:26;;;;;;;10.48;6.15;;;;;;;;;;5034294;28;20026;-64
2022/01/24 05:41:52;;;;;;;9.50;5.97;;;;;;;;;;5032730;28;20029;-67
2022/01/24 05:44:18;;;;;;;11.10;5.70;;;;;;;;;;5034104;28;20100;-66
2022/01/24 05:46:44;;;;;;;11.02;6.05;;;;;;;;;;5034105;28;20087;-68
2022/01/24 05:49:10;;;;;;;10.73;6.03;;;;;;;;;;5033969;28;20032;-67
2022/01/24 05:51:37;;;;;;;11.48;6.97;;;;;;;;;;5036371;28;20032;-67
2022/01/24 05:54:03;;;;;;;10.68;6.57;;;;;;;;;;5053642;28;20033;-65
2022/01/24 05:56:29;;;;;;;10.85;6.32;;;;;;;;;;5053901;28;20066;-69
2022/01/24 05:58:55;;;;;;;10.82;6.47;;;;;;;;;;5053759;28;20029;-68
2022/01/24 06:01:21;;;;;;;11.50;6.53;;;;;;;;;;5054076;28;20021;-69
2022/01/24 06:03:47;;;;;;;10.20;6.38;;;;;;;;;;5054064;28;20365;-69
2022/01/24 06:06:13;;;;;;;10.18;6.10;;;;;;;;;;5052654;28;20051;-69
2022/01/24 06:08:39;;;;;;;11.70;6.28;;;;;;;;;;5052925;28;20029;-69
2022/01/24 06:11:05;;;;;;;12.00;6.45;;;;;;;;;;5053952;28;20537;-68
2022/01/24 06:13:31;;;;;;;11.43;6.43;;;;;;;;;;5053423;28;20017;-69
2022/01/24 06:15:57;;;;;;;11.65;6.35;;;;;;;;;;5053422;28;20459;-68
2022/01/24 06:18:25;;;;;;;12.45;5.68;;;;;;;;;;5052601;28;20109;-68
2022/01/24 06:20:52;;;;;;;10.77;6.53;;;;;;;;;;5052951;28;20052;-67
2022/01/24 06:23:19;;;;;;;12.10;6.68;;;;;;;;;;5053492;28;20025;-69
2022/01/24 06:25:45;;;;;;;9.38;5.95;;;;;;;;;;5053772;28;20071;-69
2022/01/24 06:28:11;;;;;;;12.18;6.63;;;;;;;;;;5053682;28;20029;-67
2022/01/24 06:30:37;;;;;;;11.77;6.75;;;;;;;;;;5053618;28;20207;-69
2022/01/24 06:33:03;;;;;;;10.93;6.50;;;;;;;;;;5053691;28;20023;-68
2022/01/24 06:35:29;;;;;;;10.70;6.25;;;;;;;;;;5053270;28;20032;-67
2022/01/24 06:37:55;;;;;;;12.10;6.38;;;;;;;;;;5051552;28;20025;-66
2022/01/24 06:40:21;;;;;;;10.18;5.82;;;;;;;;;;5052695;28;20021;-67
2022/01/24 06:42:47;;;;;;;11.90;6.50;;;;;;;;;;5052724;28;20392;-66
2022/01/24 06:45:14;;;;;;;10.90;6.22;;;;;;;;;;5051443;28;20432;-68
2022/01/24 06:47:41;;;;;;;13.50;5.57;;;;;;;;;;5052538;28;20033;-67
2022/01/24 06:50:08;;;;;;;11.43;6.57;;;;;;;;;;5053053;28;20768;-67
2022/01/24 06:52:34;;;;;;;13.70;6.47;;;;;;;;;;5052868;28;20044;-67
2022/01/24 06:55:00;;;;;;;12.63;6.97;;;;;;;;;;5052498;28;20031;-67
2022/01/24 06:57:26;;;;;;;11.30;6.50;;;;;;;;;;5052558;28;20113;-65
2022/01/24 06:59:52;;;;;;;10.82;6.55;;;;;;;;;;5052683;28;20031;-67
2022/01/24 07:02:18;;;;;;;11.70;7.20;;;;;;;;;;5052344;28;20083;-67
2022/01/24 07:04:44;;;;;;;11.75;7.07;;;;;;;;;;5052478;28;20020;-66
2022/01/24 07:07:11;;;;;;;12.50;6.63;;;;;;;;;;5052462;28;20061;-66
2022/01/24 07:09:38;;;;;;;11.23;6.90;;;;;;;;;;5052653;28;20455;-66
2022/01/24 07:12:04;;;;;;;10.77;6.63;;;;;;;;;;5052485;28;20104;-65
2022/01/24 07:14:31;;;;;;;11.38;7.20;;;;;;;;;;5052513;28;20021;-66
2022/01/24 07:19:24;;;;;;;14.30;7.88;;;;;;;;;;5052393;28;20032;-67
2022/01/24 07:21:50;;;;;;;13.80;6.75;;;;;;;;;;5052345;28;20055;-66
2022/01/24 07:24:16;;;;;;;10.32;6.55;;;;;;;;;;5052246;28;20025;-67
2022/01/24 07:26:42;;;;;;;14.02;7.05;;;;;;;;;;5052109;28;20094;-66
2022/01/24 07:29:08;;;;;;;13.52;7.28;;;;;;;;;;5051046;28;20032;-66
2022/01/24 07:31:34;;;;;;;15.65;7.80;;;;;;;;;;5052347;28;20533;-65
2022/01/24 07:34:00;;;;;;;11.55;7.15;;;;;;;;;;5050798;28;20439;-64
2022/01/24 07:36:26;;;;;;;13.13;7.68;;;;;;;;;;5051973;28;20009;-67
2022/01/24 07:38:52;;;;;;;12.13;7.28;;;;;;;;;;5052102;28;20494;-66
2022/01/24 07:41:28;;;;;;;12.93;7.18;;;;;;;;;;5052030;28;20020;-66
2022/01/24 07:43:55;;;;;;;16.45;7.38;;;;;;;;;;5051569;28;20071;-66
2022/01/24 07:46:21;;;;;;;15.25;8.18;;;;;;;;;;5051553;28;20029;-66
2022/01/24 07:48:47;;;;;;;11.38;6.95;;;;;;;;;;5051605;28;20107;-67
2022/01/24 07:51:15;;;;;;;14.52;8.20;;;;;;;;;;5048136;28;20025;-64
2022/01/24 07:53:41;;;;;;;12.75;7.20;;;;;;;;;;5030071;28;20025;-65
2022/01/24 07:56:08;;;;;;;12.07;7.63;;;;;;;;;;5030506;28;20087;-70
2022/01/24 07:58:34;;;;;;;11.65;7.15;;;;;;;;;;5029914;28;20030;-70
2022/01/24 08:01:00;;;;;;;19.73;7.78;;;;;;;;;;5030969;28;20461;-70
2022/01/24 08:03:27;;;;;;;13.48;7.40;;;;;;;;;;5031442;28;20094;-69
2022/01/24 08:05:53;;;;;;;25.17;7.15;;;;;;;;;;5031248;28;20021;-70
2022/01/24 08:08:19;;;;;;;13.90;7.32;;;;;;;;;;5035434;28;20035;-69
2022/01/24 08:10:45;;;;;;;9.35;6.28;;;;;;;;;;5051399;28;20025;-69
2022/01/24 08:13:13;;;;;;;21.90;8.82;;;;;;;;;;5051031;28;20032;-69
2022/01/24 08:15:40;;;;;;;15.27;7.82;;;;;;;;;;5036785;28;20091;-69
2022/01/24 08:18:06;;;;;;;16.85;8.05;;;;;;;;;;5050865;28;20032;-65
2022/01/24 08:20:33;;;;;;;14.00;7.45;;;;;;;;;;5043959;28;20457;-69
2022/01/24 08:22:59;;;;;;;12.05;7.20;;;;;;;;;;5031497;28;20369;-68
2022/01/24 08:25:26;;;;;;;11.25;6.72;;;;;;;;;;5031095;28;20553;-69
2022/01/24 08:27:52;;;;;;;11.02;6.85;;;;;;;;;;5030732;28;20037;-70
2022/01/24 08:30:19;;;;;;;13.38;6.95;;;;;;;;;;5030719;28;20078;-70
2022/01/24 08:32:46;;;;;;;12.80;7.13;;;;;;;;;;5038135;28;20127;-69
2022/01/24 08:35:13;;;;;;;12.60;6.03;;;;;;;;;;5051261;28;20024;-68
2022/01/24 08:37:39;;;;;;;14.15;6.47;;;;;;;;;;5050965;28;20498;-68
2022/01/24 08:40:08;;;;;;;10.00;5.82;;;;;;;;;;5050829;28;20520;-68
2022/01/24 08:47:35;;;;;;;12.65;6.20;;;;;;;;;;5054751;28;20040;-68
2022/01/24 08:50:02;;;;;;;9.98;6.55;;;;;;;;;;5053543;28;20060;-68
2022/01/24 08:52:28;;;;;;;11.00;5.93;;;;;;;;;;5054872;28;20047;-69
2022/01/24 08:54:54;;;;;;;15.40;6.57;;;;;;;;;;5054444;28;20052;-69
2022/01/24 08:57:25;;;;;;;12.70;5.93;;;;;;;;;;5054599;28;20442;-67
2022/01/24 08:59:51;;;;;;;11.45;5.88;;;;;;;;;;5054720;28;20024;-69
2022/01/24 09:02:17;;;;;;;12.70;6.40;;;;;;;;;;5054815;28;20116;-69
2022/01/24 09:04:43;;;;;;;11.85;5.38;;;;;;;;;;5054618;28;20024;-66
2022/01/24 09:07:10;;;;;;;11.40;5.90;;;;;;;;;;5054639;28;20115;-68
2022/01/24 09:09:36;;;;;;;10.32;5.68;;;;;;;;;;5042940;28;20020;-67
2022/01/24 09:12:03;;;;;;;13.43;6.20;;;;;;;;;;5033344;28;20473;-67
2022/01/24 09:14:30;;;;;;;10.05;5.65;;;;;;;;;;5032758;28;20029;-68
2022/01/24 09:16:56;;;;;;;9.40;5.65;;;;;;;;;;5033648;28;20032;-65
2022/01/24 09:19:22;;;;;;;12.90;5.60;;;;;;;;;;5033462;28;20086;-65
2022/01/24 09:21:48;;;;;;;13.02;5.13;;;;;;;;;;5032911;28;20034;-67
2022/01/24 09:24:14;;;;;;;9.10;5.05;;;;;;;;;;5034109;28;20033;-69
2022/01/24 09:26:40;;;;;;;12.15;5.32;;;;;;;;;;5032849;28;20045;-66
2022/01/24 09:29:06;;;;;;;10.00;5.40;;;;;;;;;;5034106;28;20026;-64
2022/01/24 09:31:32;;;;;;;9.57;4.90;;;;;;;;;;5034009;28;20021;-69
2022/01/24 09:33:58;;;;;;;12.45;4.85;;;;;;;;;;5033912;28;20029;-69
2022/01/24 09:36:24;;;;;;;12.77;5.57;;;;;;;;;;5033877;28;20021;-68
2022/01/24 09:38:50;;;;;;;10.15;4.88;;;;;;;;;;5033215;28;20029;-69
2022/01/24 09:41:16;;;;;;;10.48;4.97;;;;;;;;;;5033996;28;20022;-68
2022/01/24 09:43:46;;;;;;;9.55;4.75;;;;;;;;;;5032787;28;20052;-68
2022/01/24 09:46:12;;;;;;;10.93;4.90;;;;;;;;;;5033898;28;20483;-69
2022/01/24 09:48:39;;;;;;;13.50;4.68;;;;;;;;;;5033848;28;20083;-66
2022/01/24 09:51:06;;;;;;;8.38;4.30;;;;;;;;;;5033798;28;20025;-67
2022/01/24 09:53:33;;;;;;;8.73;4.75;;;;;;;;;;5065935;28;20034;-68
2022/01/24 09:56:03;;;;;;;8.65;4.55;;;;;;;;;;5033560;28;20061;-67
2022/01/24 09:58:29;;;;;;;7.22;4.00;;;;;;;;;;5033707;28;20140;-66
2022/01/24 10:00:55;;;;;;;10.93;4.40;;;;;;;;;;5033954;28;20079;-62
2022/01/24 10:03:24;;;;;;;12.20;5.38;;;;;;;;;;5033667;28;20058;-62
2022/01/24 10:05:54;;;;;;;9.57;4.72;;;;;;;;;;5033845;28;20022;-61
2022/01/24 10:08:23;;;;;;;7.30;4.20;;;;;;;;;;5033592;28;20036;-62
2022/01/24 10:10:51;;;;;;;8.88;4.28;;;;;;;;;;5033512;28;20048;-62
2022/01/24 10:19:01;;;;;;;9.43;4.45;;;;;;;;;;5033767;28;20079;-63
2022/01/24 10:21:28;;;;;;;11.13;4.13;;;;;;;;;;5033520;28;20084;-64
2022/01/24 10:23:56;;;;;;;8.57;3.50;;;;;;;;;;5033535;28;20120;-63
2022/01/24 10:26:24;;;;;;;9.68;4.57;;;;;;;;;;5033512;28;20017;-63
2022/01/24 10:28:50;;;;;;;9.63;4.63;;;;;;;;;;5033120;28;20037;-62
2022/01/24 10:31:16;;;;;;;12.32;4.57;;;;;;;;;;5033045;28;20081;-64
2022/01/24 10:33:51;;;;;;;12.15;4.70;;;;;;;;;;5033720;28;20030;-67
2022/01/24 10:36:47;;;;;;;9.35;4.63;;;;;;;;;;5033404;28;20071;-63
2022/01/24 10:39:26;;;;;;;7.32;3.80;;;;;;;;;;5032755;28;20029;-66
2022/01/24 10:42:29;;;;;;;6.35;3.85;;;;;;;;;;5033619;28;20029;-62
2022/01/24 10:44:55;;;;;;;8.98;4.63;;;;;;;;;;5032291;28;20029;-64
2022/01/24 10:47:29;;;;;;;7.65;3.92;;;;;;;;;;5032072;28;20045;-62
2022/01/24 10:49:57;;;;;;;6.60;3.80;;;;;;;;;;5033414;28;20025;-65
2022/01/24 10:52:33;;;;;;;9.50;3.90;;;;;;;;;;5033548;28;20048;-62
2022/01/24 10:55:19;;;;;;;8.15;3.63;;;;;;;;;;5033338;28;20028;-63
2022/01/24 10:57:47;;;;;;;8.18;3.60;;;;;;;;;;5033022;28;20025;-64
2022/01/24 11:00:15;;;;;;;9.77;4.70;;;;;;;;;;5033022;28;20018;-64
2022/01/24 11:02:43;;;;;;;8.38;4.10;;;;;;;;;;5032958;28;20033;-63
2022/01/24 11:05:13;;;;;;;10.65;4.18;;;;;;;;;;5033026;28;20064;-63
2022/01/24 11:07:59;;;;;;;10.15;4.30;;;;;;;;;;5032161;28;20480;-62
2022/01/24 11:10:28;;;;;;;7.32;4.05;;;;;;;;;;5032807;28;20035;-62
2022/01/24 11:12:54;;;;;;;8.88;4.32;;;;;;;;;;5032882;28;20057;-62
2022/01/24 11:15:21;;;;;;;6.90;3.40;;;;;;;;;;5032588;28;20497;-65
2022/01/24 11:17:48;;;;;;;8.00;3.67;;;;;;;;;;5032486;28;20033;-65
2022/01/24 11:20:17;;;;;;;8.88;3.63;;;;;;;;;;5030890;28;20052;-62
2022/01/24 11:22:52;;;;;;;11.35;4.03;;;;;;;;;;5032681;28;20022;-66
2022/01/24 11:25:18;;;;;;;8.40;4.10;;;;;;;;;;5032254;28;20076;-66
2022/01/24 11:27:47;;;;;;;7.20;3.80;;;;;;;;;;5032131;28;20152;-66
2022/01/24 11:30:24;;;;;;;6.53;3.15;;;;;;;;;;5032195;28;20017;-64
2022/01/24 11:33:02;;;;;;;7.25;3.97;;;;;;;;;;5032528;28;20021;-70
2022/01/24 11:35:33;;;;;;;9.50;3.67;;;;;;;;;;5032468;28;20096;-68
2022/01/24 11:37:59;;;;;;;10.10;3.92;;;;;;;;;;5032459;28;20017;-64
2022/01/24 11:40:26;;;;;;;6.85;4.15;;;;;;;;;;5031043;28;20025;-69
2022/01/24 11:42:52;;;;;;;6.93;3.63;;;;;;;;;;5032428;28;20027;-61
2022/01/24 11:45:33;;;;;;;6.85;3.83;;;;;;;;;;5032350;28;20052;-67
2022/01/24 11:48:16;;;;;;;7.50;3.85;;;;;;;;;;5032056;28;20110;-61
2022/01/24 11:50:43;;;;;;;6.43;3.20;;;;;;;;;;5032253;28;20026;-63
2022/01/24 11:53:22;;;;;;;7.85;3.38;;;;;;;;;;5032531;28;20025;-63
2022/01/24 11:55:48;;;;;;;7.38;3.70;;;;;;;;;;5032185;28;20152;-65
2022/01/24 11:58:22;;;;;;;6.57;3.88;;;;;;;;;;5032205;28;20496;-62
2022/01/24 12:00:48;;;;;;;8.25;3.97;;;;;;;;;;5032066;28;20021;-62
2022/01/24 12:03:23;;;;;;;10.23;4.38;;;;;;;;;;5032204;28;20041;-63
2022/01/24 12:05:51;;;;;;;8.55;3.65;;;;;;;;;;5032108;28;20502;-62
2022/01/24 12:08:34;;;;;;;7.20;3.35;;;;;;;;;;5032039;28;20476;-65
2022/01/24 12:11:00;;;;;;;;;;;;;;;;;;5032388;28;20029;-62
2022/01/24 12:13:29;;;;;;;7.20;3.83;;;;;;;;;;5032157;28;20279;-62
2022/01/24 12:15:55;;;;;;;8.63;3.72;;;;;;;;;;5031729;28;20037;-62
2022/01/24 12:18:28;;;;;;;8.57;3.55;;;;;;;;;;5031946;28;20017;-63
2022/01/24 12:21:07;;;;;;;6.43;3.58;;;;;;;;;;5035559;28;20395;-62
2022/01/24 12:23:38;;;;;;;7.82;3.42;;;;;;;;;;5035915;28;20018;-62
2022/01/24 12:26:08;;;;;;;6.45;3.50;;;;;;;;;;5035306;28;20028;-62
2022/01/24 12:28:42;;;;;;;8.48;3.63;;;;;;;;;;5035530;28;20017;-61
2022/01/24 12:31:17;;;;;;;8.93;3.83;;;;;;;;;;5035835;28;20040;-62
2022/01/24 12:33:43;;;;;;;8.70;3.72;;;;;;;;;;5035898;28;20452;-62
2022/01/24 12:36:11;;;;;;;7.28;3.42;;;;;;;;;;5035720;28;20473;-62
2022/01/24 12:38:45;;;;;;;7.00;3.20;;;;;;;;;;5035752;28;20091;-62
2022/01/24 12:41:37;;;;;;;11.10;3.60;;;;;;;;;;5034427;28;20032;-63
2022/01/24 12:46:29;;;;;;;6.78;3.28;;;;;;;;;;5035563;28;20087;-63
2022/01/24 12:48:57;;;;;;;8.02;3.63;;;;;;;;;;5036671;28;20022;-64
2022/01/24 12:51:24;;;;;;;7.28;3.53;;;;;;;;;;5055458;28;20021;-64
2022/01/24 12:53:51;;;;;;;6.82;3.35;;;;;;;;;;5055374;28;20028;-65
2022/01/24 12:56:18;;;;;;;5.78;3.40;;;;;;;;;;5055511;28;20017;-64
2022/01/24 12:58:48;;;;;;;6.93;2.65;;;;;;;;;;5055308;28;20017;-63
2022/01/24 13:01:20;;;;;;;5.53;3.15;;;;;;;;;;5055260;28;20025;-62
2022/01/24 13:04:10;;;;;;;6.43;3.35;;;;;;;;;;5055496;28;20057;-63
2022/01/24 13:06:38;;;;;;;7.18;3.55;;;;;;;;;;5053763;28;20060;-63
2022/01/24 13:09:15;;;;;;;7.35;3.67;;;;;;;;;;5054744;28;20037;-63
2022/01/24 13:11:48;;;;;;;7.38;3.33;;;;;;;;;;5054630;28;20075;-66
2022/01/24 13:14:29;;;;;;;6.55;3.20;;;;;;;;;;5054785;28;20021;-68
2022/01/24 13:25:15;;;;;;;7.20;3.70;;;;;;;;;;5054848;28;20025;-62
2022/01/24 13:27:43;;;;;;;8.65;4.05;;;;;;;;;;5053680;28;20132;-62
2022/01/24 13:30:17;;;;;;;5.88;3.38;;;;;;;;;;5054275;28;20017;-63
2022/01/24 13:32:53;;;;;;;8.63;3.38;;;;;;;;;;5054897;28;20021;-61
2022/01/24 13:35:26;;;;;;;7.82;3.55;;;;;;;;;;5053550;28;20052;-61
2022/01/24 13:37:55;;;;;;;9.32;3.50;;;;;;;;;;5054567;28;20155;-65
2022/01/24 13:40:31;;;;;;;8.18;3.80;;;;;;;;;;5054355;28;20029;-64
2022/01/24 13:42:57;;;;;;;10.35;3.80;;;;;;;;;;5054490;28;20021;-63
2022/01/24 13:45:24;;;;;;;9.82;3.78;;;;;;;;;;5054377;28;20017;-64
2022/01/24 13:47:59;;;;;;;8.57;3.38;;;;;;;;;;5054554;28;20029;-63
2022/01/24 13:50:26;;;;;;;7.30;3.65;;;;;;;;;;5054458;28;20027;-67
2022/01/24 13:52:52;;;;;;;7.18;3.60;;;;;;;;;;5054444;28;20118;-63
2022/01/24 13:55:19;;;;;;;7.53;3.42;;;;;;;;;;5054499;28;20241;-64
2022/01/24 13:57:50;;;;;;;7.75;4.15;;;;;;;;;;5054344;28;20031;-67
2022/01/24 14:00:20;;;;;;;7.97;4.38;;;;;;;;;;5054187;28;20029;-64
2022/01/24 14:02:46;;;;;;;6.75;3.47;;;;;;;;;;5053118;28;20036;-67
2022/01/24 14:05:13;;;;;;;9.07;3.72;;;;;;;;;;5052973;28;20017;-66
2022/01/24 14:07:42;;;;;;;6.50;3.40;;;;;;;;;;5054191;28;20045;-62
2022/01/24 14:10:13;;;;;;;8.48;4.10;;;;;;;;;;5054069;28;20018;-64
2022/01/24 14:12:45;;;;;;;8.18;3.83;;;;;;;;;;5052776;28;20031;-65
2022/01/24 14:18:42;;;;;;;6.60;3.75;;;;;;;;;;5053860;28;20013;-65
2022/01/24 14:20:53;;;;;;;8.88;4.28;;;;;;;;;;5053035;28;20170;-65
2022/01/24 14:23:35;;;;;;;8.05;3.67;;;;;;;;;;5053978;28;20033;-63
2022/01/24 14:26:21;;;;;;;9.43;3.67;;;;;;;;;;5053736;28;20400;-62
2022/01/24 14:28:48;;;;;;;8.63;3.95;;;;;;;;;;5053544;28;20090;-63
2022/01/24 14:31:16;;;;;;;9.48;4.90;;;;;;;;;;5053604;28;20028;-66
2022/01/24 14:33:43;;;;;;;8.65;4.18;;;;;;;;;;5043929;28;20033;-62
2022/01/24 14:36:15;;;;;;;7.85;3.83;;;;;;;;;;5045170;28;20063;-63
2022/01/24 14:38:49;;;;;;;6.03;3.57;;;;;;;;;;5053271;28;20025;-63
2022/01/24 14:41:17;;;;;;;7.60;4.05;;;;;;;;;;5034004;28;20024;-64
2022/01/24 14:46:31;;;;;;;9.80;4.18;;;;;;;;;;5033275;28;20035;-63
2022/01/24 14:48:59;;;;;;;7.50;3.80;;;;;;;;;;5033097;28;20101;-63
2022/01/24 14:51:28;;;;;;;9.38;3.63;;;;;;;;;;5031919;28;20065;-62
2022/01/24 14:53:55;;;;;;;7.10;3.97;;;;;;;;;;5033365;28;20460;-64
2022/01/24 14:56:21;;;;;;;7.97;3.95;;;;;;;;;;5033222;28;20048;-64
2022/01/24 14:58:47;;;;;;;8.27;3.95;;;;;;;;;;5031754;28;20121;-64
2022/01/24 15:01:13;;;;;;;9.05;4.05;;;;;;;;;;5033139;28;20551;-63
2022/01/24 15:03:41;;;;;;;7.63;4.13;;;;;;;;;;5031454;28;20029;-62
2022/01/24 15:06:08;;;;;;;7.25;4.25;;;;;;;;;;5032620;28;20038;-63
2022/01/24 15:08:34;;;;;;;6.95;3.63;;;;;;;;;;5032799;28;20160;-63
2022/01/24 15:11:00;;;;;;;11.15;4.10;;;;;;;;;;5032268;28;20139;-62
2022/01/24 15:13:34;;;;;;;8.90;3.90;;;;;;;;;;5032235;28;20056;-62
2022/01/24 15:16:12;;;;;;;9.25;4.10;;;;;;;;;;5032173;28;20377;-63
2022/01/24 15:26:44;;;;;;;11.20;5.00;;;;;;;;;;5032460;28;20052;-62
2022/01/24 15:29:10;;;;;;;11.07;4.15;;;;;;;;;;5032478;28;20029;-62
2022/01/24 15:31:36;;;;;;;7.88;4.50;;;;;;;;;;5032296;28;20066;-62
2022/01/24 15:34:03;;;;;;;7.97;3.90;;;;;;;;;;5032320;28;20028;-62
2022/01/24 15:36:29;;;;;;;8.02;4.65;;;;;;;;;;5031182;28;20018;-65
2022/01/24 15:38:59;;;;;;;11.73;4.93;;;;;;;;;;5032120;28;20030;-64
2022/01/24 15:41:25;;;;;;;8.15;4.80;;;;;;;;;;5032011;28;20022;-64
2022/01/24 15:44:02;;;;;;;8.07;4.40;;;;;;;;;;5031778;28;20049;-65
2022/01/24 15:49:09;;;;;;;9.18;4.50;;;;;;;;;;5031937;28;20053;-63
2022/01/24 15:51:36;;;;;;;7.70;3.78;;;;;;;;;;5031557;28;20022;-64
2022/01/24 15:54:04;;;;;;;8.88;4.45;;;;;;;;;;5039653;28;20025;-67
2022/01/24 15:58:56;;;;;;;8.82;4.20;;;;;;;;;;5052068;28;20025;-63
2022/01/24 16:01:22;;;;;;;9.23;4.65;;;;;;;;;;5051756;28;20077;-67
2022/01/24 16:03:48;;;;;;;8.82;4.45;;;;;;;;;;5050436;28;20075;-64
2022/01/24 16:06:14;;;;;;;9.50;4.75;;;;;;;;;;5051334;28;20472;-64
2022/01/24 16:08:40;;;;;;;9.95;5.10;;;;;;;;;;5051452;28;20037;-64
2022/01/24 16:11:07;;;;;;;8.90;4.72;;;;;;;;;;5049856;28;20107;-64
2022/01/24 16:13:35;;;;;;;10.70;4.82;;;;;;;;;;5051395;28;20103;-65
2022/01/24 16:16:01;;;;;;;10.40;5.63;;;;;;;;;;5051739;28;20104;-63
2022/01/24 16:18:27;;;;;;;9.98;4.82;;;;;;;;;;5050283;28;20132;-62
2022/01/24 16:23:33;;;;;;;9.13;4.70;;;;;;;;;;5052147;28;20036;-68
2022/01/24 16:25:59;;;;;;;10.23;5.30;;;;;;;;;;5051366;28;20013;-66
2022/01/24 16:28:26;;;;;;;9.10;5.18;;;;;;;;;;5051511;28;20108;-63
2022/01/24 16:30:54;;;;;;;9.80;5.38;;;;;;;;;;5051585;28;20021;-63
2022/01/24 16:33:21;;;;;;;10.48;5.03;;;;;;;;;;5051565;28;20025;-63
2022/01/24 16:35:48;;;;;;;11.20;5.63;;;;;;;;;;5051788;28;20029;-63
2022/01/24 16:38:14;;;;;;;9.35;5.50;;;;;;;;;;5050265;28;20150;-63
2022/01/24 16:40:49;;;;;;;11.68;5.43;;;;;;;;;;5050215;28;20472;-65
2022/01/24 16:43:24;;;;;;;8.98;5.25;;;;;;;;;;5051543;28;20032;-63
2022/01/24 16:48:42;;;;;;;9.73;5.57;;;;;;;;;;5051220;28;20526;-65
2022/01/24 16:51:09;;;;;;;8.70;5.50;;;;;;;;;;5051100;28;20100;-68
2022/01/24 16:53:36;;;;;;;10.45;5.78;;;;;;;;;;5051029;28;20021;-67
2022/01/24 16:56:03;;;;;;;11.10;5.43;;;;;;;;;;5051014;28;20018;-69
2022/01/24 16:58:30;;;;;;;10.80;6.22;;;;;;;;;;5051280;28;20032;-71
2022/01/24 17:00:56;;;;;;;10.30;5.95;;;;;;;;;;5051054;28;20476;-72
2022/01/24 17:03:22;;;;;;;9.32;5.70;;;;;;;;;;5050941;28;20055;-66
2022/01/24 17:05:48;;;;;;;14.25;6.45;;;;;;;;;;5051728;28;20029;-66
2022/01/24 17:08:15;;;;;;;12.77;6.75;;;;;;;;;;5054727;28;20029;-66
2022/01/24 17:10:41;;;;;;;11.13;5.88;;;;;;;;;;5053292;28;20052;-64
2022/01/24 17:13:09;;;;;;;9.63;6.00;;;;;;;;;;5054478;28;20082;-62
2022/01/24 17:15:38;;;;;;;14.07;6.55;;;;;;;;;;5054607;28;20051;-62
2022/01/24 17:18:04;;;;;;;13.75;6.47;;;;;;;;;;5054758;28;20025;-63
2022/01/24 17:20:31;;;;;;;11.43;5.88;;;;;;;;;;5054965;28;20140;-67